Aeroporto :
LOGIN :

Iscrizione | Disclaimer

   EN    FR    IT 

 










Sommario :    VFR   VFR Marginale   IFR   IFR Intensivo   IFR Molto Intensivo
Visibilità : 
Base nubi : 
>= 8 km
>= 3000ft
5 / 8 km
1000 / 3000 ft
1500m / 5 km
500 / 1000 ft
800 / 1500m
200 / 500 ft
< 800m
< 200 ft
Simboli :   Temporali  Nebbia  Neve Forte  Precipitazioni Forti  Vento > 20 kt
SIGMETs :   Varie  Temporali  Ghiacco  Turbolenza  Onda orograficha  Ceneri Vulcaniche






- Altitudine del aeroporto : 699 ft
- Codice IATA : PAD


EDLP - Paderborn Lippstadt

ULTIMO METAR :
  • 230120Z 13016KT CAVOK 03/02 Q1002

METARs OBSOLETI :
  • 230050Z 12015KT CAVOK 03/01 Q1003
  • 230020Z 12016KT CAVOK 03/01 Q1003
  • 222350Z 12017KT CAVOK 03/01 Q1003
  • 222320Z 13016KT CAVOK 03/01 Q1003
  • 222250Z 13015KT CAVOK 03/01 Q1004

TAF TAF EDLP
Valido dal 23 a 00 ore il 24 a 00 ore UTC


222300Z 2300/2324 12009KT 9999 FEW010
TEMPO 2300/2305 13014KT BKN010
BECMG 2305/2308 12014KT
BECMG 2315/2318 11009KT



MetMap, La meteo Aeronautica in un colpo d'occhio ! - Copyright ORBIFLY Dicembre 2007 - Disclaimer

ORBIFLY MET'MAP TEAM :

Programmazione e sviluppo : Alexandra Zaïnal
Concezione e sviluppo : Baudouin d'Aumeries
Co-Programmazione e sviluppo : Marc-Olivier Méhu
Supporto tecnico e logistico : Manuel Goepfert
Aiuto per la traduzione : Arnaldo La Scala

Contatto : metmap@orbifly.com




FONTI E CREDITI :

   NOAA